sensor_id;sensor_type;location;lat;lon;timestamp;temperature;humidity
78455;SHT31;67751;51.986;5.696;2023-03-03T00:01:49;5.3;68.7
78455;SHT31;67751;51.986;5.696;2023-03-03T00:04:21;5.3;68.7
78455;SHT31;67751;51.986;5.696;2023-03-03T00:06:50;5.3;68.7
78455;SHT31;67751;51.986;5.696;2023-03-03T00:09:20;5.3;68.9
78455;SHT31;67751;51.986;5.696;2023-03-03T00:11:55;5.4;68.8
78455;SHT31;67751;51.986;5.696;2023-03-03T00:14:28;5.4;68.5
78455;SHT31;67751;51.986;5.696;2023-03-03T00:17:00;5.4;68.5
78455;SHT31;67751;51.986;5.696;2023-03-03T00:19:37;5.4;68.4
78455;SHT31;67751;51.986;5.696;2023-03-03T00:22:16;5.4;68.0
78455;SHT31;67751;51.986;5.696;2023-03-03T00:24:49;5.4;67.9
78455;SHT31;67751;51.986;5.696;2023-03-03T00:27:28;5.4;68.0
78455;SHT31;67751;51.986;5.696;2023-03-03T00:29:59;5.4;67.7
78455;SHT31;67751;51.986;5.696;2023-03-03T00:32:35;5.4;67.8
78455;SHT31;67751;51.986;5.696;2023-03-03T00:35:23;5.4;67.3
78455;SHT31;67751;51.986;5.696;2023-03-03T00:37:56;5.4;67.6
78455;SHT31;67751;51.986;5.696;2023-03-03T00:40:31;5.3;67.8
78455;SHT31;67751;51.986;5.696;2023-03-03T00:43:14;5.3;68.0
78455;SHT31;67751;51.986;5.696;2023-03-03T00:45:47;5.3;68.0
78455;SHT31;67751;51.986;5.696;2023-03-03T00:48:25;5.3;67.7
78455;SHT31;67751;51.986;5.696;2023-03-03T00:50:57;5.3;68.0
78455;SHT31;67751;51.986;5.696;2023-03-03T00:53:28;5.3;68.4
78455;SHT31;67751;51.986;5.696;2023-03-03T00:55:58;5.3;68.1
78455;SHT31;67751;51.986;5.696;2023-03-03T00:58:27;5.2;68.4
78455;SHT31;67751;51.986;5.696;2023-03-03T01:00:59;5.2;68.2
78455;SHT31;67751;51.986;5.696;2023-03-03T01:03:29;5.2;68.4
78455;SHT31;67751;51.986;5.696;2023-03-03T01:05:58;5.2;68.5
78455;SHT31;67751;51.986;5.696;2023-03-03T01:08:28;5.2;68.6
78455;SHT31;67751;51.986;5.696;2023-03-03T01:11:00;5.3;68.2
78455;SHT31;67751;51.986;5.696;2023-03-03T01:13:33;5.3;68.1
78455;SHT31;67751;51.986;5.696;2023-03-03T01:16:07;5.3;68.1
78455;SHT31;67751;51.986;5.696;2023-03-03T01:18:37;5.3;67.7
78455;SHT31;67751;51.986;5.696;2023-03-03T01:21:09;5.3;67.5
78455;SHT31;67751;51.986;5.696;2023-03-03T01:23:39;5.2;67.4
78455;SHT31;67751;51.986;5.696;2023-03-03T01:26:08;5.2;67.7
78455;SHT31;67751;51.986;5.696;2023-03-03T01:28:38;5.2;67.8
78455;SHT31;67751;51.986;5.696;2023-03-03T01:31:08;5.2;67.7
78455;SHT31;67751;51.986;5.696;2023-03-03T01:33:39;5.2;67.8
78455;SHT31;67751;51.986;5.696;2023-03-03T01:36:11;5.2;68.1
78455;SHT31;67751;51.986;5.696;2023-03-03T01:38:43;5.2;68.0
78455;SHT31;67751;51.986;5.696;2023-03-03T01:41:12;5.2;67.8
78455;SHT31;67751;51.986;5.696;2023-03-03T01:43:46;5.2;68.2
78455;SHT31;67751;51.986;5.696;2023-03-03T01:48:08;5.2;68.2
78455;SHT31;67751;51.986;5.696;2023-03-03T01:50:43;5.2;67.6
78455;SHT31;67751;51.986;5.696;2023-03-03T01:53:18;5.2;67.3
78455;SHT31;67751;51.986;5.696;2023-03-03T01:55:50;5.2;67.5
78455;SHT31;67751;51.986;5.696;2023-03-03T01:58:25;5.2;67.1
78455;SHT31;67751;51.986;5.696;2023-03-03T02:01:04;5.2;67.4
78455;SHT31;67751;51.986;5.696;2023-03-03T02:03:34;5.2;67.6
78455;SHT31;67751;51.986;5.696;2023-03-03T02:06:08;5.2;67.6
78455;SHT31;67751;51.986;5.696;2023-03-03T02:08:44;5.2;67.5
78455;SHT31;67751;51.986;5.696;2023-03-03T02:11:16;5.2;67.4
78455;SHT31;67751;51.986;5.696;2023-03-03T02:13:47;5.2;67.6
78455;SHT31;67751;51.986;5.696;2023-03-03T02:16:17;5.2;67.3
78455;SHT31;67751;51.986;5.696;2023-03-03T02:18:46;5.2;67.5
78455;SHT31;67751;51.986;5.696;2023-03-03T02:21:19;5.2;67.5
78455;SHT31;67751;51.986;5.696;2023-03-03T02:23:58;5.1;67.6
78455;SHT31;67751;51.986;5.696;2023-03-03T02:26:32;5.1;67.7
78455;SHT31;67751;51.986;5.696;2023-03-03T02:29:03;5.1;67.5
78455;SHT31;67751;51.986;5.696;2023-03-03T02:31:32;5.1;67.8
78455;SHT31;67751;51.986;5.696;2023-03-03T02:34:04;5.1;68.0
78455;SHT31;67751;51.986;5.696;2023-03-03T02:36:35;5.1;68.1
78455;SHT31;67751;51.986;5.696;2023-03-03T02:39:09;5.1;67.7
78455;SHT31;67751;51.986;5.696;2023-03-03T02:41:44;5.1;67.7
78455;SHT31;67751;51.986;5.696;2023-03-03T02:44:16;5.1;67.7
78455;SHT31;67751;51.986;5.696;2023-03-03T02:46:49;5.1;68.2
78455;SHT31;67751;51.986;5.696;2023-03-03T02:49:21;5.1;68.2
78455;SHT31;67751;51.986;5.696;2023-03-03T02:51:52;5.1;68.2
78455;SHT31;67751;51.986;5.696;2023-03-03T02:54:24;5.1;68.4
78455;SHT31;67751;51.986;5.696;2023-03-03T02:56:54;5.1;68.3
78455;SHT31;67751;51.986;5.696;2023-03-03T02:59:26;5.1;68.1
78455;SHT31;67751;51.986;5.696;2023-03-03T03:01:56;5.1;68.1
78455;SHT31;67751;51.986;5.696;2023-03-03T03:04:26;5.2;67.7
78455;SHT31;67751;51.986;5.696;2023-03-03T03:06:56;5.2;68.0
78455;SHT31;67751;51.986;5.696;2023-03-03T03:09:26;5.2;67.9
78455;SHT31;67751;51.986;5.696;2023-03-03T03:11:58;5.2;67.7
78455;SHT31;67751;51.986;5.696;2023-03-03T03:14:28;5.3;67.5
78455;SHT31;67751;51.986;5.696;2023-03-03T03:16:58;5.3;67.4
78455;SHT31;67751;51.986;5.696;2023-03-03T03:19:28;5.3;67.3
78455;SHT31;67751;51.986;5.696;2023-03-03T03:21:58;5.3;67.6
78455;SHT31;67751;51.986;5.696;2023-03-03T03:24:27;5.3;67.3
78455;SHT31;67751;51.986;5.696;2023-03-03T03:26:57;5.3;67.6
78455;SHT31;67751;51.986;5.696;2023-03-03T03:29:28;5.4;67.5
78455;SHT31;67751;51.986;5.696;2023-03-03T03:31:58;5.4;67.4
78455;SHT31;67751;51.986;5.696;2023-03-03T03:34:27;5.4;67.3
78455;SHT31;67751;51.986;5.696;2023-03-03T03:36:57;5.4;67.0
78455;SHT31;67751;51.986;5.696;2023-03-03T03:39:27;5.4;66.9
78455;SHT31;67751;51.986;5.696;2023-03-03T03:41:56;5.4;67.1
78455;SHT31;67751;51.986;5.696;2023-03-03T03:44:26;5.5;67.1
78455;SHT31;67751;51.986;5.696;2023-03-03T03:46:55;5.5;66.8
78455;SHT31;67751;51.986;5.696;2023-03-03T03:49:25;5.5;66.7
78455;SHT31;67751;51.986;5.696;2023-03-03T03:51:55;5.4;67.0
78455;SHT31;67751;51.986;5.696;2023-03-03T03:54:24;5.4;66.8
78455;SHT31;67751;51.986;5.696;2023-03-03T03:56:54;5.4;66.8
78455;SHT31;67751;51.986;5.696;2023-03-03T03:59:23;5.4;66.8
78455;SHT31;67751;51.986;5.696;2023-03-03T04:01:53;5.4;66.7
78455;SHT31;67751;51.986;5.696;2023-03-03T04:04:22;5.4;67.0
78455;SHT31;67751;51.986;5.696;2023-03-03T04:06:54;5.4;67.0
78455;SHT31;67751;51.986;5.696;2023-03-03T04:09:25;5.4;66.9
78455;SHT31;67751;51.986;5.696;2023-03-03T04:11:56;5.4;66.7
78455;SHT31;67751;51.986;5.696;2023-03-03T04:14:26;5.4;66.6
78455;SHT31;67751;51.986;5.696;2023-03-03T04:16:55;5.3;66.8
78455;SHT31;67751;51.986;5.696;2023-03-03T04:19:25;5.3;67.1
78455;SHT31;67751;51.986;5.696;2023-03-03T04:21:54;5.3;66.8
78455;SHT31;67751;51.986;5.696;2023-03-03T04:24:24;5.3;67.1
78455;SHT31;67751;51.986;5.696;2023-03-03T04:26:55;5.3;67.3
78455;SHT31;67751;51.986;5.696;2023-03-03T04:29:25;5.3;67.2
78455;SHT31;67751;51.986;5.696;2023-03-03T04:31:54;5.3;67.1
78455;SHT31;67751;51.986;5.696;2023-03-03T04:34:25;5.3;66.8
78455;SHT31;67751;51.986;5.696;2023-03-03T04:36:55;5.3;67.0
78455;SHT31;67751;51.986;5.696;2023-03-03T04:39:24;5.2;67.0
78455;SHT31;67751;51.986;5.696;2023-03-03T04:41:54;5.2;67.0
78455;SHT31;67751;51.986;5.696;2023-03-03T04:44:23;5.2;67.1
78455;SHT31;67751;51.986;5.696;2023-03-03T04:46:53;5.1;67.1
78455;SHT31;67751;51.986;5.696;2023-03-03T04:49:23;5.1;67.0
78455;SHT31;67751;51.986;5.696;2023-03-03T04:51:53;5.1;67.5
78455;SHT31;67751;51.986;5.696;2023-03-03T04:54:22;5.1;67.3
78455;SHT31;67751;51.986;5.696;2023-03-03T04:56:52;5.1;67.5
78455;SHT31;67751;51.986;5.696;2023-03-03T04:59:21;5.1;67.6
78455;SHT31;67751;51.986;5.696;2023-03-03T05:01:51;5.1;67.6
78455;SHT31;67751;51.986;5.696;2023-03-03T05:04:21;5.1;67.9
78455;SHT31;67751;51.986;5.696;2023-03-03T05:06:50;5.1;67.4
78455;SHT31;67751;51.986;5.696;2023-03-03T05:09:20;5.1;67.5
78455;SHT31;67751;51.986;5.696;2023-03-03T05:11:50;5.1;67.7
78455;SHT31;67751;51.986;5.696;2023-03-03T05:14:20;5.1;67.7
78455;SHT31;67751;51.986;5.696;2023-03-03T05:16:51;5.1;67.6
78455;SHT31;67751;51.986;5.696;2023-03-03T05:19:21;5.1;67.4
78455;SHT31;67751;51.986;5.696;2023-03-03T05:21:51;5.1;67.4
78455;SHT31;67751;51.986;5.696;2023-03-03T05:24:22;5.2;67.2
78455;SHT31;67751;51.986;5.696;2023-03-03T05:26:51;5.2;67.5
78455;SHT31;67751;51.986;5.696;2023-03-03T05:29:21;5.2;67.2
78455;SHT31;67751;51.986;5.696;2023-03-03T05:31:52;5.2;67.1
78455;SHT31;67751;51.986;5.696;2023-03-03T05:34:22;5.2;66.9
78455;SHT31;67751;51.986;5.696;2023-03-03T05:36:52;5.1;67.1
78455;SHT31;67751;51.986;5.696;2023-03-03T05:39:22;5.1;67.2
78455;SHT31;67751;51.986;5.696;2023-03-03T05:41:52;5.1;67.1
78455;SHT31;67751;51.986;5.696;2023-03-03T05:44:22;5.1;67.1
78455;SHT31;67751;51.986;5.696;2023-03-03T05:46:52;5.1;67.0
78455;SHT31;67751;51.986;5.696;2023-03-03T05:49:22;5.1;67.3
78455;SHT31;67751;51.986;5.696;2023-03-03T05:51:52;5.1;67.4
78455;SHT31;67751;51.986;5.696;2023-03-03T05:54:22;5.1;67.3
78455;SHT31;67751;51.986;5.696;2023-03-03T05:56:51;5.1;67.3
78455;SHT31;67751;51.986;5.696;2023-03-03T05:59:23;5.1;67.7
78455;SHT31;67751;51.986;5.696;2023-03-03T06:01:53;5.1;67.9
78455;SHT31;67751;51.986;5.696;2023-03-03T06:04:22;5.1;67.7
78455;SHT31;67751;51.986;5.696;2023-03-03T06:06:52;5.1;67.3
78455;SHT31;67751;51.986;5.696;2023-03-03T06:09:21;5.1;67.5
78455;SHT31;67751;51.986;5.696;2023-03-03T06:11:52;5.0;67.4
78455;SHT31;67751;51.986;5.696;2023-03-03T06:14:24;5.0;67.4
78455;SHT31;67751;51.986;5.696;2023-03-03T06:16:53;5.0;67.6
78455;SHT31;67751;51.986;5.696;2023-03-03T06:19:24;5.0;67.6
78455;SHT31;67751;51.986;5.696;2023-03-03T06:21:54;5.0;67.6
78455;SHT31;67751;51.986;5.696;2023-03-03T06:24:24;5.0;68.0
78455;SHT31;67751;51.986;5.696;2023-03-03T06:26:57;5.0;67.9
78455;SHT31;67751;51.986;5.696;2023-03-03T06:29:27;5.1;67.5
78455;SHT31;67751;51.986;5.696;2023-03-03T06:31:57;5.1;67.5
78455;SHT31;67751;51.986;5.696;2023-03-03T06:34:26;5.1;67.6
78455;SHT31;67751;51.986;5.696;2023-03-03T06:36:56;5.1;67.7
78455;SHT31;67751;51.986;5.696;2023-03-03T06:39:26;5.1;67.8
78455;SHT31;67751;51.986;5.696;2023-03-03T06:41:55;5.1;67.8
78455;SHT31;67751;51.986;5.696;2023-03-03T06:44:25;5.1;67.8
78455;SHT31;67751;51.986;5.696;2023-03-03T06:46:54;5.1;67.6
78455;SHT31;67751;51.986;5.696;2023-03-03T06:49:25;5.1;67.6
78455;SHT31;67751;51.986;5.696;2023-03-03T06:51:56;5.1;67.7
78455;SHT31;67751;51.986;5.696;2023-03-03T06:54:28;5.1;68.0
78455;SHT31;67751;51.986;5.696;2023-03-03T06:57:07;5.1;67.7
78455;SHT31;67751;51.986;5.696;2023-03-03T06:59:39;5.1;68.2
78455;SHT31;67751;51.986;5.696;2023-03-03T07:02:15;5.1;68.4
78455;SHT31;67751;51.986;5.696;2023-03-03T07:04:46;5.1;68.4
78455;SHT31;67751;51.986;5.696;2023-03-03T07:07:18;5.1;68.5
78455;SHT31;67751;51.986;5.696;2023-03-03T07:09:51;5.1;68.9
78455;SHT31;67751;51.986;5.696;2023-03-03T07:12:24;5.1;69.0
78455;SHT31;67751;51.986;5.696;2023-03-03T07:15:11;5.1;69.2
78455;SHT31;67751;51.986;5.696;2023-03-03T07:17:43;5.1;69.3
78455;SHT31;67751;51.986;5.696;2023-03-03T07:20:18;5.1;69.3
78455;SHT31;67751;51.986;5.696;2023-03-03T07:22:50;5.1;69.4
78455;SHT31;67751;51.986;5.696;2023-03-03T07:25:25;5.1;69.6
78455;SHT31;67751;51.986;5.696;2023-03-03T07:28:10;5.1;69.9
78455;SHT31;67751;51.986;5.696;2023-03-03T07:30:41;5.1;70.3
78455;SHT31;67751;51.986;5.696;2023-03-03T07:33:22;5.1;70.2
78455;SHT31;67751;51.986;5.696;2023-03-03T07:35:54;5.2;70.4
78455;SHT31;67751;51.986;5.696;2023-03-03T07:38:29;5.2;70.4
78455;SHT31;67751;51.986;5.696;2023-03-03T07:41:01;5.2;70.4
78455;SHT31;67751;51.986;5.696;2023-03-03T07:43:34;5.2;70.2
78455;SHT31;67751;51.986;5.696;2023-03-03T07:46:17;5.3;70.2
78455;SHT31;67751;51.986;5.696;2023-03-03T07:48:49;5.3;70.5
78455;SHT31;67751;51.986;5.696;2023-03-03T07:51:22;5.3;70.4
78455;SHT31;67751;51.986;5.696;2023-03-03T07:54:10;5.3;70.0
78455;SHT31;67751;51.986;5.696;2023-03-03T07:56:36;5.4;70.2
78455;SHT31;67751;51.986;5.696;2023-03-03T07:59:19;5.4;70.0
78455;SHT31;67751;51.986;5.696;2023-03-03T08:01:51;5.4;70.1
78455;SHT31;67751;51.986;5.696;2023-03-03T08:04:25;5.4;70.5
78455;SHT31;67751;51.986;5.696;2023-03-03T08:06:57;5.5;70.2
78455;SHT31;67751;51.986;5.696;2023-03-03T08:09:35;5.5;70.2
78455;SHT31;67751;51.986;5.696;2023-03-03T08:12:18;5.5;70.3
78455;SHT31;67751;51.986;5.696;2023-03-03T08:14:53;5.6;69.9
78455;SHT31;67751;51.986;5.696;2023-03-03T08:17:26;5.6;70.1
78455;SHT31;67751;51.986;5.696;2023-03-03T08:19:57;5.6;69.9
78455;SHT31;67751;51.986;5.696;2023-03-03T08:22:30;5.6;69.4
78455;SHT31;67751;51.986;5.696;2023-03-03T08:25:02;5.6;69.9
78455;SHT31;67751;51.986;5.696;2023-03-03T08:27:32;5.7;69.7
78455;SHT31;67751;51.986;5.696;2023-03-03T08:30:01;5.7;69.5
78455;SHT31;67751;51.986;5.696;2023-03-03T08:32:31;5.7;69.7
78455;SHT31;67751;51.986;5.696;2023-03-03T08:35:00;5.7;70.2
78455;SHT31;67751;51.986;5.696;2023-03-03T08:37:30;5.7;69.7
78455;SHT31;67751;51.986;5.696;2023-03-03T08:39:59;5.7;69.1
78455;SHT31;67751;51.986;5.696;2023-03-03T08:42:29;5.7;69.3
78455;SHT31;67751;51.986;5.696;2023-03-03T08:44:59;5.7;69.1
78455;SHT31;67751;51.986;5.696;2023-03-03T08:47:29;5.8;68.2
78455;SHT31;67751;51.986;5.696;2023-03-03T08:50:00;5.8;68.2
78455;SHT31;67751;51.986;5.696;2023-03-03T08:52:29;5.8;68.5
78455;SHT31;67751;51.986;5.696;2023-03-03T08:55:00;5.8;67.7
78455;SHT31;67751;51.986;5.696;2023-03-03T08:57:30;5.8;67.9
78455;SHT31;67751;51.986;5.696;2023-03-03T08:59:59;5.8;68.1
78455;SHT31;67751;51.986;5.696;2023-03-03T09:02:29;5.8;68.5
78455;SHT31;67751;51.986;5.696;2023-03-03T09:04:59;5.8;68.6
78455;SHT31;67751;51.986;5.696;2023-03-03T09:07:29;5.8;67.9
78455;SHT31;67751;51.986;5.696;2023-03-03T09:09:59;5.8;68.6
78455;SHT31;67751;51.986;5.696;2023-03-03T09:12:33;5.9;68.9
78455;SHT31;67751;51.986;5.696;2023-03-03T09:15:17;5.9;68.7
78455;SHT31;67751;51.986;5.696;2023-03-03T09:17:48;6.0;67.4
78455;SHT31;67751;51.986;5.696;2023-03-03T09:20:30;6.0;66.8
78455;SHT31;67751;51.986;5.696;2023-03-03T09:23:27;6.1;66.1
78455;SHT31;67751;51.986;5.696;2023-03-03T09:26:17;6.1;66.2
78455;SHT31;67751;51.986;5.696;2023-03-03T09:28:54;6.1;65.9
78455;SHT31;67751;51.986;5.696;2023-03-03T09:31:35;6.1;65.0
78455;SHT31;67751;51.986;5.696;2023-03-03T09:34:17;6.1;65.3
78455;SHT31;67751;51.986;5.696;2023-03-03T09:36:49;6.1;65.2
78455;SHT31;67751;51.986;5.696;2023-03-03T09:39:21;6.1;65.3
78455;SHT31;67751;51.986;5.696;2023-03-03T09:43:43;6.1;66.0
78455;SHT31;67751;51.986;5.696;2023-03-03T09:46:23;6.1;65.8
78455;SHT31;67751;51.986;5.696;2023-03-03T09:49:03;6.2;65.8
78455;SHT31;67751;51.986;5.696;2023-03-03T09:52:29;6.2;64.7
78455;SHT31;67751;51.986;5.696;2023-03-03T09:55:16;6.2;65.8
78455;SHT31;67751;51.986;5.696;2023-03-03T09:58:03;6.2;65.2
78455;SHT31;67751;51.986;5.696;2023-03-03T10:00:48;6.2;65.7
78455;SHT31;67751;51.986;5.696;2023-03-03T10:06:23;6.3;65.3
78455;SHT31;67751;51.986;5.696;2023-03-03T10:09:06;6.3;66.4
78455;SHT31;67751;51.986;5.696;2023-03-03T10:11:48;6.4;66.0
78455;SHT31;67751;51.986;5.696;2023-03-03T10:14:33;6.5;65.9
78455;SHT31;67751;51.986;5.696;2023-03-03T10:17:21;6.5;64.4
78455;SHT31;67751;51.986;5.696;2023-03-03T10:20:04;6.6;64.9
78455;SHT31;67751;51.986;5.696;2023-03-03T10:22:45;6.6;65.3
78455;SHT31;67751;51.986;5.696;2023-03-03T10:25:23;6.7;66.2
78455;SHT31;67751;51.986;5.696;2023-03-03T10:28:18;6.8;65.5
78455;SHT31;67751;51.986;5.696;2023-03-03T10:31:08;6.9;63.4
78455;SHT31;67751;51.986;5.696;2023-03-03T10:33:50;7.0;64.3
78455;SHT31;67751;51.986;5.696;2023-03-03T10:36:44;7.0;63.2
78455;SHT31;67751;51.986;5.696;2023-03-03T10:39:23;7.1;63.2
78455;SHT31;67751;51.986;5.696;2023-03-03T10:42:22;7.2;64.1
78455;SHT31;67751;51.986;5.696;2023-03-03T10:45:26;7.2;63.0
78455;SHT31;67751;51.986;5.696;2023-03-03T10:48:34;7.3;63.7
78455;SHT31;67751;51.986;5.696;2023-03-03T10:51:15;7.4;61.8
78455;SHT31;67751;51.986;5.696;2023-03-03T10:53:57;7.4;62.1
78455;SHT31;67751;51.986;5.696;2023-03-03T10:56:39;7.5;62.3
78455;SHT31;67751;51.986;5.696;2023-03-03T11:00:06;7.5;61.7
78455;SHT31;67751;51.986;5.696;2023-03-03T11:02:49;7.6;61.7
78455;SHT31;67751;51.986;5.696;2023-03-03T11:05:32;7.7;61.0
78455;SHT31;67751;51.986;5.696;2023-03-03T11:08:13;7.7;60.0
78455;SHT31;67751;51.986;5.696;2023-03-03T11:10:54;7.8;61.1
78455;SHT31;67751;51.986;5.696;2023-03-03T11:13:36;7.8;60.4
78455;SHT31;67751;51.986;5.696;2023-03-03T11:16:31;7.8;60.2
78455;SHT31;67751;51.986;5.696;2023-03-03T11:19:15;7.9;59.8
78455;SHT31;67751;51.986;5.696;2023-03-03T11:21:59;7.9;59.3
78455;SHT31;67751;51.986;5.696;2023-03-03T11:24:38;7.9;60.0
78455;SHT31;67751;51.986;5.696;2023-03-03T11:27:25;8.0;61.2
78455;SHT31;67751;51.986;5.696;2023-03-03T11:30:03;8.0;60.8
78455;SHT31;67751;51.986;5.696;2023-03-03T11:32:45;8.1;60.6
78455;SHT31;67751;51.986;5.696;2023-03-03T11:35:24;8.1;61.1
78455;SHT31;67751;51.986;5.696;2023-03-03T11:38:02;8.2;58.9
78455;SHT31;67751;51.986;5.696;2023-03-03T11:40:46;8.3;58.1
78455;SHT31;67751;51.986;5.696;2023-03-03T11:43:23;8.3;58.2
78455;SHT31;67751;51.986;5.696;2023-03-03T11:45:58;8.3;58.3
78455;SHT31;67751;51.986;5.696;2023-03-03T11:48:38;8.3;58.0
78455;SHT31;67751;51.986;5.696;2023-03-03T11:51:19;8.4;58.0
78455;SHT31;67751;51.986;5.696;2023-03-03T11:54:07;8.4;58.8
78455;SHT31;67751;51.986;5.696;2023-03-03T11:56:41;8.4;58.3
78455;SHT31;67751;51.986;5.696;2023-03-03T11:59:24;8.4;57.7
78455;SHT31;67751;51.986;5.696;2023-03-03T12:02:00;8.4;57.0
78455;SHT31;67751;51.986;5.696;2023-03-03T12:04:37;8.4;56.8
78455;SHT31;67751;51.986;5.696;2023-03-03T12:07:16;8.5;56.6
78455;SHT31;67751;51.986;5.696;2023-03-03T12:09:56;8.5;56.5
78455;SHT31;67751;51.986;5.696;2023-03-03T12:12:34;8.5;54.8
78455;SHT31;67751;51.986;5.696;2023-03-03T12:15:21;8.5;55.3
78455;SHT31;67751;51.986;5.696;2023-03-03T12:19:05;8.6;55.5
78455;SHT31;67751;51.986;5.696;2023-03-03T12:21:52;8.6;56.2
78455;SHT31;67751;51.986;5.696;2023-03-03T12:24:35;8.6;55.4
78455;SHT31;67751;51.986;5.696;2023-03-03T12:27:16;8.7;56.3
78455;SHT31;67751;51.986;5.696;2023-03-03T12:29:58;8.7;55.2
78455;SHT31;67751;51.986;5.696;2023-03-03T12:32:47;8.8;55.4
78455;SHT31;67751;51.986;5.696;2023-03-03T12:35:28;8.8;55.2
78455;SHT31;67751;51.986;5.696;2023-03-03T12:38:04;8.8;55.0
78455;SHT31;67751;51.986;5.696;2023-03-03T12:40:42;8.9;54.4
78455;SHT31;67751;51.986;5.696;2023-03-03T12:43:34;8.9;53.7
78455;SHT31;67751;51.986;5.696;2023-03-03T12:46:15;8.9;53.8
78455;SHT31;67751;51.986;5.696;2023-03-03T12:48:46;8.9;52.6
78455;SHT31;67751;51.986;5.696;2023-03-03T12:51:32;9.0;52.7
78455;SHT31;67751;51.986;5.696;2023-03-03T12:54:20;9.0;53.5
78455;SHT31;67751;51.986;5.696;2023-03-03T12:56:57;9.0;53.8
78455;SHT31;67751;51.986;5.696;2023-03-03T12:59:36;9.1;51.6
78455;SHT31;67751;51.986;5.696;2023-03-03T13:02:22;9.1;51.7
78455;SHT31;67751;51.986;5.696;2023-03-03T13:04:59;9.1;52.2
78455;SHT31;67751;51.986;5.696;2023-03-03T13:07:40;9.2;52.0
78455;SHT31;67751;51.986;5.696;2023-03-03T13:10:20;9.2;52.0
78455;SHT31;67751;51.986;5.696;2023-03-03T13:12:55;9.3;51.8
78455;SHT31;67751;51.986;5.696;2023-03-03T13:15:32;9.3;50.6
78455;SHT31;67751;51.986;5.696;2023-03-03T13:18:31;9.3;50.8
78455;SHT31;67751;51.986;5.696;2023-03-03T13:21:06;9.4;51.3
78455;SHT31;67751;51.986;5.696;2023-03-03T13:23:49;9.4;51.6
78455;SHT31;67751;51.986;5.696;2023-03-03T13:26:26;9.4;52.5
78455;SHT31;67751;51.986;5.696;2023-03-03T13:29:04;9.5;51.6
78455;SHT31;67751;51.986;5.696;2023-03-03T13:31:39;9.5;50.9
78455;SHT31;67751;51.986;5.696;2023-03-03T13:34:21;9.6;51.4
78455;SHT31;67751;51.986;5.696;2023-03-03T13:36:57;9.6;51.5
78455;SHT31;67751;51.986;5.696;2023-03-03T13:39:33;9.7;50.8
78455;SHT31;67751;51.986;5.696;2023-03-03T13:42:14;9.7;50.5
78455;SHT31;67751;51.986;5.696;2023-03-03T13:44:48;9.7;50.2
78455;SHT31;67751;51.986;5.696;2023-03-03T13:47:24;9.7;50.6
78455;SHT31;67751;51.986;5.696;2023-03-03T13:50:21;9.7;49.9
78455;SHT31;67751;51.986;5.696;2023-03-03T13:53:05;9.7;49.9
78455;SHT31;67751;51.986;5.696;2023-03-03T13:55:45;9.7;49.5
78455;SHT31;67751;51.986;5.696;2023-03-03T13:58:26;9.7;49.3
78455;SHT31;67751;51.986;5.696;2023-03-03T14:01:07;9.7;49.5
78455;SHT31;67751;51.986;5.696;2023-03-03T14:04:00;9.7;49.3
78455;SHT31;67751;51.986;5.696;2023-03-03T14:06:32;9.7;49.7
78455;SHT31;67751;51.986;5.696;2023-03-03T14:09:25;9.7;50.9
78455;SHT31;67751;51.986;5.696;2023-03-03T14:12:06;9.7;49.8
78455;SHT31;67751;51.986;5.696;2023-03-03T14:14:48;9.7;50.1
78455;SHT31;67751;51.986;5.696;2023-03-03T14:17:31;9.7;49.2
78455;SHT31;67751;51.986;5.696;2023-03-03T14:20:16;9.8;49.5
78455;SHT31;67751;51.986;5.696;2023-03-03T14:22:54;9.8;49.3
78455;SHT31;67751;51.986;5.696;2023-03-03T14:25:25;9.8;49.7
78455;SHT31;67751;51.986;5.696;2023-03-03T14:28:01;9.8;50.9
78455;SHT31;67751;51.986;5.696;2023-03-03T14:30:37;9.8;50.4
78455;SHT31;67751;51.986;5.696;2023-03-03T14:33:19;9.8;50.5
78455;SHT31;67751;51.986;5.696;2023-03-03T14:36:03;9.8;51.4
78455;SHT31;67751;51.986;5.696;2023-03-03T14:38:40;9.9;50.7
78455;SHT31;67751;51.986;5.696;2023-03-03T14:41:19;9.9;50.4
78455;SHT31;67751;51.986;5.696;2023-03-03T14:44:00;9.9;51.0
78455;SHT31;67751;51.986;5.696;2023-03-03T14:46:36;9.9;51.3
78455;SHT31;67751;51.986;5.696;2023-03-03T14:49:14;9.9;51.0
78455;SHT31;67751;51.986;5.696;2023-03-03T14:51:47;9.9;51.3
78455;SHT31;67751;51.986;5.696;2023-03-03T14:54:26;9.9;49.9
78455;SHT31;67751;51.986;5.696;2023-03-03T14:57:12;9.9;50.0
78455;SHT31;67751;51.986;5.696;2023-03-03T14:59:57;9.8;50.9
78455;SHT31;67751;51.986;5.696;2023-03-03T15:02:31;9.8;50.9
78455;SHT31;67751;51.986;5.696;2023-03-03T15:05:14;9.8;51.1
78455;SHT31;67751;51.986;5.696;2023-03-03T15:07:46;9.7;51.0
78455;SHT31;67751;51.986;5.696;2023-03-03T15:10:28;9.7;50.5
78455;SHT31;67751;51.986;5.696;2023-03-03T15:16:08;9.6;51.6
78455;SHT31;67751;51.986;5.696;2023-03-03T15:18:58;9.5;52.1
78455;SHT31;67751;51.986;5.696;2023-03-03T15:21:30;9.5;52.1
78455;SHT31;67751;51.986;5.696;2023-03-03T15:24:09;9.5;51.8
78455;SHT31;67751;51.986;5.696;2023-03-03T15:26:46;9.5;53.0
78455;SHT31;67751;51.986;5.696;2023-03-03T15:29:23;9.4;52.6
78455;SHT31;67751;51.986;5.696;2023-03-03T15:32:03;9.4;52.3
78455;SHT31;67751;51.986;5.696;2023-03-03T15:34:42;9.4;51.3
78455;SHT31;67751;51.986;5.696;2023-03-03T15:37:33;9.5;51.1
78455;SHT31;67751;51.986;5.696;2023-03-03T15:40:18;9.4;51.7
78455;SHT31;67751;51.986;5.696;2023-03-03T15:42:54;9.4;51.2
78455;SHT31;67751;51.986;5.696;2023-03-03T15:45:30;9.4;51.0
78455;SHT31;67751;51.986;5.696;2023-03-03T15:48:26;9.4;51.2
78455;SHT31;67751;51.986;5.696;2023-03-03T15:51:07;9.4;50.7
78455;SHT31;67751;51.986;5.696;2023-03-03T15:54:01;9.4;50.6
78455;SHT31;67751;51.986;5.696;2023-03-03T15:56:37;9.3;51.3
78455;SHT31;67751;51.986;5.696;2023-03-03T16:02:45;9.3;52.2
78455;SHT31;67751;51.986;5.696;2023-03-03T16:05:22;9.3;50.8
78455;SHT31;67751;51.986;5.696;2023-03-03T16:07:59;9.3;50.8
78455;SHT31;67751;51.986;5.696;2023-03-03T16:10:44;9.3;50.7
78455;SHT31;67751;51.986;5.696;2023-03-03T16:13:35;9.3;51.0
78455;SHT31;67751;51.986;5.696;2023-03-03T16:16:27;9.3;51.7
78455;SHT31;67751;51.986;5.696;2023-03-03T16:19:19;9.3;52.1
78455;SHT31;67751;51.986;5.696;2023-03-03T16:22:06;9.3;52.2
78455;SHT31;67751;51.986;5.696;2023-03-03T16:24:50;9.3;52.6
78455;SHT31;67751;51.986;5.696;2023-03-03T16:27:28;9.3;50.9
78455;SHT31;67751;51.986;5.696;2023-03-03T16:30:14;9.3;51.4
78455;SHT31;67751;51.986;5.696;2023-03-03T16:32:51;9.2;51.5
78455;SHT31;67751;51.986;5.696;2023-03-03T16:35:24;9.2;51.7
78455;SHT31;67751;51.986;5.696;2023-03-03T16:38:01;9.2;51.6
78455;SHT31;67751;51.986;5.696;2023-03-03T16:40:41;9.1;52.0
78455;SHT31;67751;51.986;5.696;2023-03-03T16:43:24;9.1;52.6
78455;SHT31;67751;51.986;5.696;2023-03-03T16:45:58;9.1;52.2
78455;SHT31;67751;51.986;5.696;2023-03-03T16:48:36;9.1;52.9
78455;SHT31;67751;51.986;5.696;2023-03-03T16:51:25;9.0;52.2
78455;SHT31;67751;51.986;5.696;2023-03-03T16:54:05;9.0;51.8
78455;SHT31;67751;51.986;5.696;2023-03-03T16:56:43;8.9;51.6
78455;SHT31;67751;51.986;5.696;2023-03-03T16:59:34;8.9;52.9
78455;SHT31;67751;51.986;5.696;2023-03-03T17:03:59;8.9;52.6
78455;SHT31;67751;51.986;5.696;2023-03-03T17:06:35;8.8;52.3
78455;SHT31;67751;51.986;5.696;2023-03-03T17:09:35;8.8;52.8
78455;SHT31;67751;51.986;5.696;2023-03-03T17:12:30;8.8;52.1
78455;SHT31;67751;51.986;5.696;2023-03-03T17:15:54;8.8;52.3
78455;SHT31;67751;51.986;5.696;2023-03-03T17:18:36;8.7;51.5
78455;SHT31;67751;51.986;5.696;2023-03-03T17:21:22;8.7;52.4
78455;SHT31;67751;51.986;5.696;2023-03-03T17:24:07;8.7;52.3
78455;SHT31;67751;51.986;5.696;2023-03-03T17:26:54;8.7;51.3
78455;SHT31;67751;51.986;5.696;2023-03-03T17:29:40;8.6;51.0
78455;SHT31;67751;51.986;5.696;2023-03-03T17:32:22;8.6;51.6
78455;SHT31;67751;51.986;5.696;2023-03-03T17:35:14;8.6;52.0